Saturday, October 20, 2018, 11:07 AM GMT
Back to Local

CWSS, St. Stephen, N. B.

Location: , , Canada Lat: 45.217
Local Time: 11:07 AM GMT (11:07 GMT) Lon: -67.25
Time Zone: GMT Elev: 85 ft

Show me the last for .
Show Coded

Time T Td Feel RH Dir Speed Gust Alt SLP Vis Weather Sky Remarks
2018-10-20 10:00 53 45 - 73 190° 10 18 - 29.62 0 Peak wind: 19 mph (17 kts) from 180° at 31 min
2018-10-20 09:00 52 45 - 77 180° 8 - - 29.63 0 None
2018-10-20 08:00 51 45 - 82 160° 6 - - 29.67 0 None
2018-10-20 07:00 50 45 - 82 160° 6 - - 29.69 0 None
2018-10-20 06:00 46 44 - 94 90° 2 - - 29.74 0 None
2018-10-20 05:00 44 43 - 98 110° 1 - - 29.78 0 None
2018-10-20 04:00 42 41 - 96 50° 2 - - 29.80 0 None
2018-10-20 03:00 39 38 - 94 70° 1 - - 29.84 0 None
2018-10-20 02:00 40 37 - 89 100° 1 - - 29.87 0 None
2018-10-20 01:00 42 39 - 86 160° 2 - - 29.90 0 None
2018-10-20 00:00 43 38 - 82 160° 2 - - 29.93 0 None
2018-10-19 23:00 43 37 40 78 170° 6 - - 29.93 0 None
2018-10-19 22:00 44 36 42 72 160° 5 - - 29.95 0 None
2018-10-19 21:00 49 35 46 59 160° 7 - - 29.94 0 None
2018-10-19 20:00 50 32 - 48 180° 10 - - 29.95 0 None
2018-10-19 19:00 51 30 - 44 170° 6 - - 29.98 0 None
2018-10-19 18:00 47 27 44 45 210° 7 - - 30.01 0 None
2018-10-19 17:00 42 24 39 47 190° 6 - - 30.04 0 None
2018-10-19 16:00 40 23 - 49 210° 2 - - 30.08 0 None
2018-10-19 15:00 37 23 35 54 220° 3 - - 30.11 0 None
2018-10-19 14:00 36 23 32 58 250° 5 - - 30.13 0 None
2018-10-19 13:00 32 25 - 74 260° 2 - - 30.14 0 None
2018-10-19 12:00 28 26 - 91 - Calm - - 30.15 0 None

Support USWX by starting your Amazon purchase here.